Time;durP1;ratioP1;P1;durP2;ratioP2;P2;SDS_P1;SDS_P2;PMS_P1;PMS_P2;Temp;Humidity;BMP_temperature;BMP_pressure;BME280_temperature;BME280_humidity;BME280_pressure;Samples;Min_cycle;Max_cycle;Signal;HPM_P1;HPM_P2
2022/12/06 00:00:09;;;;;;;8.05;6.93;;;;;;;4.99;67.83;100562.44;5084649;28;20052;-64
2022/12/06 00:02:36;;;;;;;9.40;7.22;;;;;;;5.00;68.11;100558.59;5085934;28;20075;-63
2022/12/06 00:05:05;;;;;;;8.45;6.78;;;;;;;4.94;68.47;100562.44;5071724;28;20516;-63
2022/12/06 00:07:32;;;;;;;9.13;6.95;;;;;;;4.77;68.03;100560.75;5070339;28;20465;-63
2022/12/06 00:09:59;;;;;;;9.65;6.78;;;;;;;4.92;68.48;100559.94;5067048;28;20405;-64
2022/12/06 00:12:28;;;;;;;9.30;8.02;;;;;;;5.04;67.38;100555.00;5084648;28;20056;-64
2022/12/06 00:14:55;;;;;;;7.72;6.93;;;;;;;5.02;67.65;100553.63;5091991;28;20052;-64
2022/12/06 00:17:23;;;;;;;8.38;6.88;;;;;;;5.02;67.38;100557.19;5094643;28;20062;-64
2022/12/06 00:19:52;;;;;;;9.38;7.28;;;;;;;4.92;68.04;100556.38;5095827;28;20408;-64
2022/12/06 00:22:20;;;;;;;9.45;7.28;;;;;;;5.03;67.99;100560.78;5098134;28;20511;-63
2022/12/06 00:24:50;;;;;;;10.07;7.40;;;;;;;4.95;67.64;100562.16;5114913;28;20051;-64
2022/12/06 00:27:20;;;;;;;9.63;7.65;;;;;;;4.94;67.87;100556.91;5086504;28;20389;-64
2022/12/06 00:29:49;;;;;;;9.68;6.95;;;;;;;4.97;68.30;100561.88;5095158;28;20059;-64
2022/12/06 00:32:16;;;;;;;6.60;5.93;;;;;;;5.06;68.70;100560.22;5094819;28;20048;-64
2022/12/06 00:34:43;;;;;;;9.15;7.35;;;;;;;5.05;68.46;100548.34;5091228;28;20059;-64
2022/12/06 00:37:11;;;;;;;8.35;6.50;;;;;;;5.12;68.18;100550.00;5095176;28;20409;-64
2022/12/06 00:39:38;;;;;;;8.45;6.70;;;;;;;5.07;67.79;100548.09;5102430;28;20055;-64
2022/12/06 00:42:05;;;;;;;8.80;7.00;;;;;;;5.15;68.04;100544.78;5092353;28;20048;-64
2022/12/06 00:44:33;;;;;;;9.10;7.00;;;;;;;5.16;67.86;100551.13;5095201;28;20047;-64
2022/12/06 00:47:01;;;;;;;7.95;6.72;;;;;;;5.04;67.39;100554.13;5094156;28;20052;-64
2022/12/06 00:49:29;;;;;;;8.00;5.82;;;;;;;5.04;68.35;100555.00;5095259;28;20473;-64
2022/12/06 00:51:56;;;;;;;9.95;6.70;;;;;;;5.08;68.45;100558.00;5090384;28;20051;-64
2022/12/06 00:54:23;;;;;;;7.65;5.45;;;;;;;5.15;67.90;100549.47;5103109;28;20408;-64
2022/12/06 00:56:51;;;;;;;8.02;6.30;;;;;;;5.21;67.69;100553.91;5115250;28;20062;-64
2022/12/06 00:59:18;;;;;;;8.30;6.47;;;;;;;5.27;67.72;100552.75;5097355;28;20052;-64
2022/12/06 01:01:45;;;;;;;7.32;5.82;;;;;;;5.31;68.01;100558.56;5076199;28;20075;-64
2022/12/06 01:04:16;;;;;;;8.27;6.22;;;;;;;5.29;67.89;100554.16;5074802;28;20512;-64
2022/12/06 01:06:44;;;;;;;7.35;6.00;;;;;;;5.33;67.73;100561.88;5074937;28;20052;-64
2022/12/06 01:09:12;;;;;;;7.72;6.20;;;;;;;5.32;67.68;100550.00;5090193;28;20059;-64
2022/12/06 01:11:39;;;;;;;9.35;7.28;;;;;;;5.37;67.31;100552.75;5079712;28;20055;-64
2022/12/06 01:14:07;;;;;;;11.75;7.35;;;;;;;5.23;67.80;100557.22;5070467;28;20052;-64
2022/12/06 01:16:34;;;;;;;11.65;8.18;;;;;;;5.19;67.49;100556.94;5074078;28;20060;-63
2022/12/06 01:19:04;;;;;;;9.45;6.82;;;;;;;5.26;67.56;100557.47;5074477;28;20048;-64
2022/12/06 01:21:33;;;;;;;11.07;7.50;;;;;;;5.25;67.79;100555.81;5072142;28;20516;-63
2022/12/06 01:24:00;;;;;;;13.25;9.07;;;;;;;5.18;67.48;100554.44;5073578;28;20504;-64
2022/12/06 01:26:29;;;;;;;10.65;7.63;;;;;;;5.28;67.96;100566.28;5074095;28;20401;-64
2022/12/06 01:28:58;;;;;;;10.32;6.75;;;;;;;5.33;68.49;100561.88;5073796;28;20119;-64
2022/12/06 01:31:26;;;;;;;10.65;7.32;;;;;;;5.37;68.14;100558.28;5074005;28;20048;-64
2022/12/06 01:33:56;;;;;;;9.77;7.80;;;;;;;5.22;68.00;100561.88;5074521;28;20059;-64
2022/12/06 01:36:25;;;;;;;13.23;7.75;;;;;;;5.23;67.99;100558.03;5076476;28;20464;-64
2022/12/06 01:38:56;;;;;;;11.98;8.48;;;;;;;5.35;68.13;100562.44;5094402;28;20059;-64
2022/12/06 01:41:25;;;;;;;14.18;8.57;;;;;;;5.31;68.29;100567.66;5094362;28;20496;-64
2022/12/06 01:43:53;;;;;;;14.65;8.68;;;;;;;5.37;67.95;100561.03;5094239;28;20055;-64
2022/12/06 01:46:28;;;;;;;13.35;8.77;;;;;;;5.33;68.62;100562.69;5093976;28;20058;-64
2022/12/06 01:49:02;;;;;;;14.73;9.15;;;;;;;5.44;68.22;100558.03;5094283;28;20503;-64
2022/12/06 01:51:30;;;;;;;14.60;8.93;;;;;;;5.41;68.29;100553.03;5089063;28;20051;-64
2022/12/06 01:54:01;;;;;;;15.70;9.38;;;;;;;5.45;68.58;100565.19;5093180;28;20048;-64
2022/12/06 01:56:29;;;;;;;17.63;9.75;;;;;;;5.54;67.81;100563.50;5093687;28;20052;-64
2022/12/06 01:58:58;;;;;;;17.83;9.52;;;;;;;5.56;67.88;100560.47;5094141;28;20500;-64
2022/12/06 02:01:27;;;;;;;18.90;10.73;;;;;;;5.54;68.08;100555.22;5077740;28;20055;-64
2022/12/06 02:03:56;;;;;;;15.40;9.30;;;;;;;5.55;68.00;100558.84;5073770;28;20063;-64
2022/12/06 02:06:23;;;;;;;18.55;10.40;;;;;;;5.53;67.84;100558.28;5086421;28;20048;-64
2022/12/06 02:08:53;;;;;;;16.23;10.00;;;;;;;5.51;68.35;100555.78;5078958;28;20049;-64
2022/12/06 02:11:22;;;;;;;15.15;9.85;;;;;;;5.53;68.13;100553.56;5072550;28;20045;-64
2022/12/06 02:13:49;;;;;;;20.15;10.13;;;;;;;5.52;68.34;100546.38;5073781;28;20059;-64
2022/12/06 02:16:31;;;;;;;19.30;11.52;;;;;;;5.39;68.42;100549.72;5073041;28;20063;-64
2022/12/06 02:19:08;;;;;;;16.27;10.38;;;;;;;5.46;68.50;100548.34;5073242;28;20076;-64
2022/12/06 02:21:44;;;;;;;18.73;10.60;;;;;;;5.55;68.49;100547.78;5089740;28;20048;-64
2022/12/06 02:24:39;;;;;;;19.17;10.80;;;;;;;5.59;68.36;100544.16;5092768;28;20438;-64
2022/12/06 02:27:30;;;;;;;16.08;9.88;;;;;;;5.59;68.16;100540.59;5086599;28;20059;-64
2022/12/06 02:30:07;;;;;;;17.88;10.95;;;;;;;5.55;68.10;100548.59;5093498;28;20052;-64
2022/12/06 02:32:43;;;;;;;16.67;10.02;;;;;;;5.63;67.74;100545.28;5092755;28;20051;-64
2022/12/06 02:35:19;;;;;;;17.70;11.10;;;;;;;5.61;68.09;100544.72;5097093;28;20048;-64
2022/12/06 02:37:52;;;;;;;16.63;9.80;;;;;;;5.65;68.35;100537.53;5108592;28;20047;-64
2022/12/06 02:40:23;;;;;;;16.08;9.95;;;;;;;5.69;68.10;100544.16;5105738;28;20059;-64
2022/12/06 02:42:55;;;;;;;17.65;10.27;;;;;;;5.71;67.75;100538.31;5093029;28;20389;-64
2022/12/06 02:45:28;;;;;;;15.52;9.95;;;;;;;5.72;67.83;100539.19;5092968;28;20059;-64
2022/12/06 02:48:02;;;;;;;15.73;9.15;;;;;;;5.73;67.80;100535.28;5092445;28;20059;-64
2022/12/06 02:50:32;;;;;;;18.63;10.43;;;;;;;5.72;67.92;100541.94;5093074;28;20056;-64
2022/12/06 02:53:02;;;;;;;14.77;9.77;;;;;;;5.76;67.90;100534.75;5110729;28;20051;-64
2022/12/06 02:55:31;;;;;;;15.25;10.00;;;;;;;5.86;67.42;100535.53;5112501;28;20050;-64
2022/12/06 02:57:59;;;;;;;18.63;11.53;;;;;;;5.76;67.58;100535.56;5106159;28;20071;-64
2022/12/06 03:00:33;;;;;;;14.43;9.38;;;;;;;5.72;67.29;100541.94;5085477;28;20051;-64
2022/12/06 03:03:21;;;;;;;15.95;9.63;;;;;;;5.58;67.85;100536.97;5072084;28;20048;-64
2022/12/06 03:06:11;;;;;;;15.07;9.00;;;;;;;5.67;67.94;100535.31;5063310;28;20408;-64
2022/12/06 03:08:47;;;;;;;14.38;8.45;;;;;;;5.72;67.56;100533.66;5052429;28;20053;-64
2022/12/06 03:11:15;;;;;;;14.30;9.93;;;;;;;5.74;67.66;100536.97;5052062;28;20509;-64
2022/12/06 03:13:52;;;;;;;12.85;8.45;;;;;;;5.81;67.44;100534.72;5052851;28;20048;-64
2022/12/06 03:16:26;;;;;;;13.52;9.05;;;;;;;5.75;67.52;100544.13;5052434;28;20053;-64
2022/12/06 03:19:04;;;;;;;19.98;10.93;;;;;;;5.68;66.67;100541.66;5052580;28;20049;-64
2022/12/06 03:21:36;;;;;;;14.13;8.93;;;;;;;5.67;67.14;100535.31;5075156;28;20059;-64
2022/12/06 03:24:07;;;;;;;12.00;8.32;;;;;;;5.76;67.17;100537.50;5092509;28;20055;-64
2022/12/06 03:26:37;;;;;;;13.82;9.10;;;;;;;5.70;66.97;100533.91;5112241;28;20059;-64
2022/12/06 03:29:05;;;;;;;;;;;;;;;5.51;67.58;100541.97;5101904;28;20055;-64
2022/12/06 03:31:36;;;;;;;13.70;8.73;;;;;;;5.66;67.70;100539.16;5092325;28;19919;-64
2022/12/06 03:34:10;;;;;;;12.82;9.10;;;;;;;5.68;67.50;100542.47;5092635;28;20052;-64
2022/12/06 03:36:39;;;;;;;13.88;8.70;;;;;;;5.68;67.73;100531.44;5106723;28;20051;-64
2022/12/06 03:39:07;;;;;;;10.27;7.87;;;;;;;5.76;67.04;100531.97;5112903;28;20063;-64
2022/12/06 03:41:40;;;;;;;12.52;8.38;;;;;;;5.77;66.95;100537.22;5112711;28;20515;-64
2022/12/06 03:44:08;;;;;;;12.43;8.80;;;;;;;5.52;67.19;100535.31;5113039;28;20043;-64
2022/12/06 03:46:38;;;;;;;10.80;7.85;;;;;;;5.63;67.72;100528.69;5112317;28;20056;-64
2022/12/06 03:49:12;;;;;;;10.63;7.57;;;;;;;5.76;67.38;100527.28;5108586;28;20492;-64
2022/12/06 03:51:40;;;;;;;12.25;8.32;;;;;;;5.75;67.79;100530.31;5114967;28;20051;-64
2022/12/06 03:54:09;;;;;;;10.18;7.55;;;;;;;5.79;67.84;100536.94;5116742;28;20055;-64
2022/12/06 03:56:37;;;;;;;11.82;8.05;;;;;;;5.76;67.39;100530.03;5114223;28;20059;-64
2022/12/06 03:59:06;;;;;;;9.82;7.40;;;;;;;5.77;67.60;100533.63;5100765;28;20047;-64
2022/12/06 04:01:33;;;;;;;9.88;6.65;;;;;;;5.83;67.16;100533.31;5079344;28;20048;-64
2022/12/06 04:04:01;;;;;;;9.68;7.32;;;;;;;5.85;67.28;100524.75;5086068;28;20075;-65
2022/12/06 04:06:29;;;;;;;8.85;6.97;;;;;;;5.87;67.30;100533.59;5096106;28;20047;-64
2022/12/06 04:09:51;;;;;;;10.30;8.05;;;;;;;5.91;67.05;100529.16;5096411;28;20048;-64
2022/12/06 04:11:44;;;;;;;10.90;7.63;;;;;;;5.93;67.05;100526.94;5095731;28;20052;-65
2022/12/06 04:14:12;;;;;;;9.23;7.30;;;;;;;5.88;67.56;100530.56;5096338;28;20408;-64
2022/12/06 04:19:24;;;;;;;11.57;8.40;;;;;;;5.93;66.83;100532.47;5085780;28;20076;-64
2022/12/06 04:24:37;;;;;;;12.82;8.50;;;;;;;5.85;67.12;100533.03;5055655;28;20061;-64
2022/12/06 04:40:47;;;;;;;13.18;9.07;;;;;;;5.73;67.95;100522.28;5101808;28;20060;-65
2022/12/06 04:45:59;;;;;;;13.68;8.77;;;;;;;5.74;68.43;100520.38;5101498;28;20503;-65
2022/12/06 04:48:26;;;;;;;19.60;10.35;;;;;;;5.79;68.41;100515.63;5093025;28;20400;-64
2022/12/06 04:50:54;;;;;;;17.15;9.43;;;;;;;5.82;68.70;100514.28;5095400;28;20055;-64
2022/12/06 04:53:22;;;;;;;16.83;10.43;;;;;;;5.87;68.32;100517.00;5094758;28;20052;-65
2022/12/06 04:55:50;;;;;;;16.42;9.50;;;;;;;5.85;68.16;100516.47;5095127;28;20586;-65
2022/12/06 04:58:17;;;;;;;15.98;8.95;;;;;;;5.82;68.61;100514.28;5093407;28;20515;-64
2022/12/06 05:00:45;;;;;;;16.83;9.60;;;;;;;5.81;68.53;100510.66;5085001;28;20052;-65
2022/12/06 05:03:15;;;;;;;14.88;9.55;;;;;;;5.92;68.50;100519.75;5074338;28;20052;-64
2022/12/06 05:05:42;;;;;;;17.35;9.52;;;;;;;5.90;68.13;100517.28;5078479;28;20052;-65
2022/12/06 05:08:10;;;;;;;16.33;10.07;;;;;;;5.85;67.99;100513.69;5094622;28;20070;-65
2022/12/06 05:10:38;;;;;;;16.45;9.57;;;;;;;5.83;68.09;100513.16;5094919;28;20400;-65
2022/12/06 05:13:06;;;;;;;20.60;10.07;;;;;;;5.85;68.19;100517.28;5094836;28;20052;-64
2022/12/06 05:15:33;;;;;;;19.45;10.65;;;;;;;5.83;68.50;100518.69;5094588;28;20048;-65
2022/12/06 05:18:00;;;;;;;13.57;8.60;;;;;;;5.87;67.71;100509.53;5094804;28;20051;-64
2022/12/06 05:20:27;;;;;;;18.20;9.35;;;;;;;5.83;67.73;100516.72;5092755;28;20586;-65
2022/12/06 05:22:55;;;;;;;20.80;10.02;;;;;;;5.80;67.84;100516.50;5094308;28;20477;-64
2022/12/06 05:25:24;;;;;;;20.13;10.95;;;;;;;5.70;68.26;100518.16;5094057;28;20051;-65
2022/12/06 05:27:53;;;;;;;21.63;10.77;;;;;;;5.75;68.46;100513.72;5088618;28;20060;-64
2022/12/06 05:30:20;;;;;;;20.73;10.93;;;;;;;5.73;68.99;100513.19;5090859;28;20059;-64
2022/12/06 05:32:48;;;;;;;31.67;11.32;;;;;;;5.79;69.03;100509.28;5094293;28;20055;-65
2022/12/06 05:35:15;;;;;;;18.95;9.70;;;;;;;5.76;69.20;100516.22;5079809;28;20052;-64
2022/12/06 05:37:42;;;;;;;18.50;10.05;;;;;;;5.80;69.34;100510.97;5073898;28;20048;-64
2022/12/06 05:40:11;;;;;;;22.52;11.57;;;;;;;5.78;69.07;100516.75;5073514;28;20428;-65
2022/12/06 05:42:39;;;;;;;25.10;11.57;;;;;;;5.83;69.01;100513.16;5073004;28;20473;-64
2022/12/06 05:45:11;;;;;;;18.75;9.65;;;;;;;5.85;69.06;100510.94;5073223;28;20500;-64
2022/12/06 05:47:39;;;;;;;59.65;15.57;;;;;;;5.85;68.35;100508.16;5058101;28;20148;-65
2022/12/06 05:50:07;;;;;;;16.15;10.18;;;;;;;5.82;68.87;100498.50;5088117;28;20063;-65
2022/12/06 05:52:35;;;;;;;18.17;10.40;;;;;;;5.94;68.69;100502.88;5093085;28;20059;-64
2022/12/06 05:55:02;;;;;;;16.77;9.77;;;;;;;5.94;69.11;100503.69;5087106;28;20048;-65
2022/12/06 05:57:29;;;;;;;21.42;10.10;;;;;;;5.83;69.03;100499.34;5073179;28;20056;-64
2022/12/06 05:59:56;;;;;;;19.38;11.48;;;;;;;5.82;69.09;100505.97;5073284;28;20071;-64
2022/12/06 06:02:25;;;;;;;23.35;10.90;;;;;;;5.88;68.69;100502.91;5091746;28;20060;-65
2022/12/06 06:04:52;;;;;;;16.88;10.55;;;;;;;5.80;69.00;100503.50;5097625;28;20054;-64
2022/12/06 06:07:19;;;;;;;23.58;11.27;;;;;;;5.83;68.82;100510.38;5099888;28;20047;-64
2022/12/06 06:09:47;;;;;;;17.75;10.55;;;;;;;5.92;68.38;100513.38;5104106;28;20055;-65
2022/12/06 06:12:14;;;;;;;22.50;11.13;;;;;;;5.96;68.37;100504.28;5093435;28;20472;-64
2022/12/06 06:14:41;;;;;;;17.08;10.68;;;;;;;5.96;68.54;100509.81;5092605;28;20066;-64
2022/12/06 06:17:09;;;;;;;18.35;10.68;;;;;;;5.97;68.93;100505.13;5097702;28;20059;-64
2022/12/06 06:19:37;;;;;;;15.93;10.18;;;;;;;5.96;68.77;100501.50;5092926;28;20056;-64
2022/12/06 06:22:05;;;;;;;16.63;11.18;;;;;;;5.92;68.75;100505.09;5099704;28;20059;-64
2022/12/06 06:24:36;;;;;;;20.33;11.60;;;;;;;5.97;68.52;100514.25;5113724;28;20052;-64
2022/12/06 06:27:03;;;;;;;14.77;10.18;;;;;;;5.97;68.52;100511.47;5108492;28;20480;-64
2022/12/06 06:29:31;;;;;;;15.98;10.15;;;;;;;5.98;68.76;100512.28;5074087;28;20044;-64
2022/12/06 06:31:58;;;;;;;20.67;11.68;;;;;;;5.97;69.04;100507.88;5084676;28;20503;-64
2022/12/06 06:34:26;;;;;;;17.55;9.98;;;;;;;6.01;67.57;100511.75;5072337;28;20060;-64
2022/12/06 06:36:54;;;;;;;19.30;11.20;;;;;;;5.97;67.99;100513.41;5088371;28;20055;-64
2022/12/06 06:39:21;;;;;;;17.40;11.57;;;;;;;5.94;67.94;100509.22;5092866;28;20059;-64
2022/12/06 06:41:49;;;;;;;17.17;11.18;;;;;;;5.96;67.92;100511.75;5091666;28;20063;-64
2022/12/06 06:44:16;;;;;;;18.42;11.23;;;;;;;5.87;68.42;100511.47;5089460;28;20052;-64
2022/12/06 06:46:43;;;;;;;16.02;10.25;;;;;;;5.90;68.83;100508.16;5101134;28;20055;-64
2022/12/06 06:49:11;;;;;;;17.95;10.20;;;;;;;5.93;68.48;100510.34;5111381;28;20062;-64
2022/12/06 06:51:38;;;;;;;17.27;10.05;;;;;;;5.97;68.39;100505.13;5112754;28;20047;-64
2022/12/06 06:54:07;;;;;;;18.30;11.20;;;;;;;5.97;68.38;100511.47;5107678;28;20090;-64
2022/12/06 06:56:34;;;;;;;18.88;11.20;;;;;;;6.02;68.40;100508.69;5092938;28;20048;-64
2022/12/06 06:59:02;;;;;;;18.40;10.48;;;;;;;5.94;68.55;100514.75;5084214;28;20052;-65
2022/12/06 07:01:29;;;;;;;22.58;10.75;;;;;;;5.98;68.20;100523.34;5107179;28;20055;-64
2022/12/06 07:03:56;;;;;;;19.35;10.75;;;;;;;5.97;68.03;100517.00;5110140;28;20396;-64
2022/12/06 07:06:23;;;;;;;17.05;10.70;;;;;;;6.01;67.87;100511.75;5100413;28;20488;-64
2022/12/06 07:08:51;;;;;;;18.40;11.00;;;;;;;5.94;68.17;100514.75;5100102;28;20071;-64
2022/12/06 07:11:19;;;;;;;16.75;11.05;;;;;;;6.00;68.00;100515.59;5096005;28;20043;-64
2022/12/06 07:13:47;;;;;;;16.65;9.82;;;;;;;6.03;67.54;100510.34;5090573;28;20058;-64
2022/12/06 07:16:16;;;;;;;15.68;10.02;;;;;;;5.99;67.46;100520.31;5090872;28;20439;-64
2022/12/06 07:18:43;;;;;;;13.82;9.52;;;;;;;5.95;67.14;100512.88;5101565;28;20495;-63
2022/12/06 07:21:13;;;;;;;24.58;13.15;;;;;;;5.86;67.37;100518.13;5078545;28;20055;-63
2022/12/06 07:23:40;;;;;;;16.05;10.23;;;;;;;5.86;68.36;100515.38;5089441;28;20062;-64
2022/12/06 07:26:10;;;;;;;16.33;9.90;;;;;;;5.89;67.99;100514.78;5085020;28;20055;-63
2022/12/06 07:28:40;;;;;;;18.17;11.40;;;;;;;5.88;68.05;100516.72;5080526;28;20048;-63
2022/12/06 07:31:09;;;;;;;16.65;11.25;;;;;;;5.85;68.13;100513.69;5091949;28;20484;-63
2022/12/06 07:33:36;;;;;;;17.67;11.60;;;;;;;5.90;67.75;100510.94;5083901;28;20044;-64
2022/12/06 07:36:05;;;;;;;18.00;10.90;;;;;;;5.91;67.55;100512.56;5093734;28;20075;-64
2022/12/06 07:38:32;;;;;;;16.92;10.32;;;;;;;5.98;67.59;100518.66;5095013;28;20055;-64
2022/12/06 07:44:59;;;;;;;17.10;11.20;;;;;;;6.04;67.18;100511.97;5083899;28;20047;-63
2022/12/06 07:46:38;;;;;;;21.00;10.90;;;;;;;5.92;67.03;100508.69;5091655;28;20063;-64
2022/12/06 07:49:06;;;;;;;15.10;10.48;;;;;;;5.93;67.48;100510.34;5079372;28;20051;-62
2022/12/06 07:51:34;;;;;;;13.75;10.27;;;;;;;5.96;68.22;100518.09;5110443;28;20058;-62
2022/12/06 07:54:02;;;;;;;16.77;11.23;;;;;;;5.96;67.39;100514.50;5111746;28;20380;-62
2022/12/06 07:56:29;;;;;;;16.75;11.77;;;;;;;6.03;67.34;100521.41;5112303;28;20063;-65
2022/12/06 07:58:58;;;;;;;15.90;10.48;;;;;;;6.07;67.84;100519.72;5112011;28;20048;-62
2022/12/06 08:01:25;;;;;;;17.05;10.98;;;;;;;6.15;67.46;100523.81;5107557;28;20056;-62
2022/12/06 08:03:54;;;;;;;19.45;11.60;;;;;;;6.12;67.38;100526.34;5111685;28;20047;-62
2022/12/06 08:06:22;;;;;;;16.42;10.65;;;;;;;6.13;67.91;100533.53;5112353;28;20062;-64
2022/12/06 08:08:49;;;;;;;16.42;10.65;;;;;;;6.19;67.46;100540.69;5112326;28;20059;-65
2022/12/06 08:11:16;;;;;;;15.88;10.65;;;;;;;6.17;67.58;100534.59;5112335;28;20055;-64
2022/12/06 08:13:44;;;;;;;19.00;11.30;;;;;;;6.22;67.15;100537.38;5111984;28;20040;-64
2022/12/06 08:16:13;;;;;;;18.05;11.88;;;;;;;6.24;67.44;100535.16;5110810;28;20065;-63
2022/12/06 08:18:40;;;;;;;29.35;14.68;;;;;;;6.21;66.99;100536.53;5103367;28;20388;-63
2022/12/06 08:21:08;;;;;;;16.60;10.93;;;;;;;6.23;67.17;100544.53;5107745;28;20059;-63
2022/12/06 08:23:36;;;;;;;27.02;13.13;;;;;;;6.27;67.74;100540.09;5102496;28;20063;-63
2022/12/06 08:26:05;;;;;;;29.13;12.85;;;;;;;6.23;67.72;100537.06;5111337;28;20051;-63
2022/12/06 08:28:35;;;;;;;17.25;10.20;;;;;;;6.27;67.58;100543.69;5112063;28;20052;-63
2022/12/06 08:31:06;;;;;;;21.38;12.25;;;;;;;6.35;67.80;100545.03;5112060;28;20051;-63
2022/12/06 08:33:35;;;;;;;15.50;10.60;;;;;;;6.44;67.83;100548.84;5092536;28;20056;-63
2022/12/06 08:36:08;;;;;;;16.80;10.60;;;;;;;6.55;67.79;100544.13;5091604;28;20044;-63
2022/12/06 08:38:36;;;;;;;18.33;11.82;;;;;;;6.46;67.08;100546.63;5095723;28;20464;-63
2022/12/06 08:41:03;;;;;;;17.13;11.38;;;;;;;6.44;66.86;100543.31;5113717;28;20047;-63
2022/12/06 08:43:31;;;;;;;17.95;11.48;;;;;;;6.50;67.09;100542.19;5115558;28;20048;-63
2022/12/06 08:45:58;;;;;;;17.55;11.32;;;;;;;6.48;66.98;100544.41;5115680;28;20047;-63
2022/12/06 08:48:27;;;;;;;18.95;11.27;;;;;;;6.53;67.08;100545.50;5115431;28;20055;-63
2022/12/06 08:50:55;;;;;;;17.08;12.02;;;;;;;6.48;66.61;100547.16;5102267;28;20056;-63
2022/12/06 08:53:23;;;;;;;17.08;11.15;;;;;;;6.50;67.04;100542.19;5099484;28;20056;-63
2022/12/06 08:55:54;;;;;;;20.77;13.48;;;;;;;6.53;66.61;100551.03;5114922;28;20062;-63
2022/12/06 08:58:22;;;;;;;16.65;10.88;;;;;;;6.60;66.55;100549.59;5106266;28;20060;-63
2022/12/06 09:00:49;;;;;;;15.43;12.05;;;;;;;6.63;67.33;100559.28;5115151;28;20503;-63
2022/12/06 09:03:16;;;;;;;17.83;11.82;;;;;;;6.68;67.12;100557.31;5115317;28;20048;-63
2022/12/06 09:05:43;;;;;;;16.55;10.45;;;;;;;6.69;67.37;100560.91;5110753;28;20043;-63
2022/12/06 09:08:12;;;;;;;17.65;11.05;;;;;;;6.74;66.63;100558.13;5114146;28;20059;-63
2022/12/06 09:10:39;;;;;;;14.43;10.55;;;;;;;6.76;66.95;100561.44;5114499;28;20247;-63
2022/12/06 09:13:06;;;;;;;16.02;11.45;;;;;;;6.79;66.63;100560.00;5114829;28;20048;-64
2022/12/06 09:15:34;;;;;;;21.70;13.23;;;;;;;6.79;66.20;100562.78;5114972;28;20528;-64
2022/12/06 09:18:01;;;;;;;14.02;10.27;;;;;;;6.82;66.14;100560.25;5114769;28;20484;-64
2022/12/06 09:20:28;;;;;;;15.23;10.43;;;;;;;6.93;66.19;100562.94;5098561;28;20416;-64
2022/12/06 09:22:55;;;;;;;14.15;10.18;;;;;;;6.85;66.63;100558.88;5094393;28;20048;-63
2022/12/06 09:25:24;;;;;;;15.68;10.63;;;;;;;6.85;66.36;100558.88;5094731;28;20059;-64
2022/12/06 09:27:53;;;;;;;15.10;10.43;;;;;;;6.96;65.45;100559.63;5093867;28;20063;-64
2022/12/06 09:30:20;;;;;;;13.10;10.05;;;;;;;6.95;65.70;100560.72;5105180;28;20052;-64
2022/12/06 09:32:48;;;;;;;15.73;10.43;;;;;;;6.91;65.39;100561.31;5101212;28;20051;-63
2022/12/06 09:35:15;;;;;;;15.65;10.77;;;;;;;6.93;66.09;100566.56;5094044;28;20055;-64
2022/12/06 09:37:43;;;;;;;16.50;9.77;;;;;;;6.94;65.56;100561.84;5090684;28;20059;-64
2022/12/06 09:40:20;;;;;;;15.50;10.45;;;;;;;6.99;66.15;100562.66;5110550;28;20078;-64
2022/12/06 09:43:02;;;;;;;15.02;9.90;;;;;;;7.05;65.54;100552.34;5114360;28;20373;-64
2022/12/06 09:45:40;;;;;;;15.30;10.85;;;;;;;6.91;65.12;100568.78;5073986;28;20046;-64
2022/12/06 09:48:43;;;;;;;15.23;10.30;;;;;;;6.99;65.91;100565.41;5072505;28;20055;-63
2022/12/06 09:51:25;;;;;;;15.30;10.68;;;;;;;6.96;65.01;100570.69;5068472;28;20060;-64
2022/12/06 09:54:04;;;;;;;14.85;10.70;;;;;;;6.97;66.23;100567.66;5085020;28;20059;-64
2022/12/06 09:56:35;;;;;;;;;;;;;;;6.99;66.29;100567.34;5094387;28;20056;-64
2022/12/06 09:59:14;;;;;;;14.23;10.60;;;;;;;7.07;64.99;100566.72;5087748;28;19920;-64
2022/12/06 10:01:58;;;;;;;17.92;11.93;;;;;;;7.01;65.66;100563.16;5106334;28;20049;-64
2022/12/06 10:04:41;;;;;;;16.20;10.80;;;;;;;6.95;65.93;100557.94;5105524;28;20052;-63
2022/12/06 10:07:15;;;;;;;15.15;10.82;;;;;;;7.01;66.35;100556.81;5113974;28;20059;-63
2022/12/06 10:09:54;;;;;;;15.05;10.98;;;;;;;7.03;66.36;100554.56;5113569;28;20051;-64
2022/12/06 10:12:34;;;;;;;16.33;10.63;;;;;;;7.10;66.88;100557.84;5109466;28;20051;-63
2022/12/06 10:15:24;;;;;;;20.15;12.63;;;;;;;7.11;66.35;100540.94;5113465;28;20051;-63
2022/12/06 10:18:08;;;;;;;14.75;11.05;;;;;;;7.24;65.69;100547.75;5113576;28;20055;-64
2022/12/06 10:20:44;;;;;;;16.60;11.00;;;;;;;7.37;66.06;100545.41;5113341;28;20062;-65
2022/12/06 10:23:22;;;;;;;17.15;11.85;;;;;;;7.38;65.81;100544.31;5113751;28;20066;-65
2022/12/06 10:26:02;;;;;;;13.93;10.27;;;;;;;7.39;65.76;100541.25;5113127;28;20056;-65
2022/12/06 10:28:38;;;;;;;14.70;10.20;;;;;;;7.42;66.59;100539.84;5110736;28;20059;-64
2022/12/06 10:31:19;;;;;;;13.80;10.27;;;;;;;7.43;65.50;100538.72;5113210;28;20051;-63
2022/12/06 10:33:54;;;;;;;14.95;10.52;;;;;;;7.47;65.58;100531.47;5072648;28;20049;-63
2022/12/06 10:36:34;;;;;;;14.43;9.40;;;;;;;7.48;66.16;100533.13;5075797;28;20056;-63
2022/12/06 10:39:12;;;;;;;14.45;10.45;;;;;;;7.53;65.11;100530.31;5113691;28;20408;-64
2022/12/06 10:41:47;;;;;;;14.57;10.93;;;;;;;7.57;65.96;100536.91;5112818;28;20056;-64
2022/12/06 10:44:20;;;;;;;13.10;10.38;;;;;;;7.67;65.50;100520.19;5109605;28;20058;-64
2022/12/06 10:47:05;;;;;;;13.65;9.68;;;;;;;7.73;65.00;100529.28;5112678;28;20062;-64
2022/12/06 10:49:41;;;;;;;12.48;9.63;;;;;;;7.69;65.83;100533.75;5113221;28;20058;-64
2022/12/06 10:52:20;;;;;;;13.05;9.73;;;;;;;7.73;64.51;100519.00;5112802;28;20404;-64
2022/12/06 10:54:57;;;;;;;19.55;11.05;;;;;;;7.72;65.72;100525.66;5100491;28;20048;-64
2022/12/06 10:57:32;;;;;;;13.05;10.27;;;;;;;7.68;65.19;100519.03;5097768;28;20480;-64
2022/12/06 11:00:04;;;;;;;15.25;10.32;;;;;;;7.69;66.18;100515.16;5107238;28;20051;-64
2022/12/06 11:02:39;;;;;;;14.80;12.13;;;;;;;7.69;65.28;100508.81;5112914;28;20059;-64
2022/12/06 11:05:17;;;;;;;13.80;10.38;;;;;;;7.66;66.15;100512.97;5112674;28;20047;-64
2022/12/06 11:07:47;;;;;;;15.73;10.73;;;;;;;7.69;65.59;100511.56;5112489;28;20402;-65
2022/12/06 11:10:20;;;;;;;14.43;10.00;;;;;;;7.70;66.33;100504.91;5112669;28;20058;-64
2022/12/06 11:12:49;;;;;;;18.05;11.68;;;;;;;7.67;65.55;100503.53;5108156;28;20052;-64
2022/12/06 11:15:21;;;;;;;16.38;10.30;;;;;;;7.65;66.15;100508.56;5112892;28;20430;-64
2022/12/06 11:17:53;;;;;;;14.23;9.95;;;;;;;7.70;66.42;100508.50;5112298;28;20059;-64
2022/12/06 11:20:25;;;;;;;14.55;10.85;;;;;;;7.67;66.19;100511.03;5112231;28;20048;-64
2022/12/06 11:23:04;;;;;;;14.32;10.23;;;;;;;7.70;65.04;100513.22;5112471;28;20051;-64
2022/12/06 11:25:41;;;;;;;12.55;9.35;;;;;;;7.71;65.53;100510.16;5109503;28;20066;-64
2022/12/06 11:28:20;;;;;;;12.13;9.45;;;;;;;7.75;65.92;100506.78;5112643;28;20047;-64
2022/12/06 11:30:49;;;;;;;17.23;10.95;;;;;;;7.72;66.10;100500.69;5111198;28;20059;-64
2022/12/06 11:33:21;;;;;;;13.35;9.55;;;;;;;7.81;65.86;100492.59;5095246;28;20052;-64
2022/12/06 11:35:49;;;;;;;13.95;10.30;;;;;;;7.86;66.29;100500.00;5091566;28;20048;-64
2022/12/06 11:38:16;;;;;;;12.00;9.63;;;;;;;7.89;66.61;100488.31;5108214;28;20081;-64
2022/12/06 11:40:47;;;;;;;14.07;10.93;;;;;;;7.98;65.30;100489.31;5111092;28;20492;-64
2022/12/06 11:43:18;;;;;;;12.38;9.63;;;;;;;8.01;65.61;100493.44;5103809;28;20063;-64
2022/12/06 11:45:46;;;;;;;13.05;9.88;;;;;;;8.10;66.62;100500.78;5111883;28;20050;-64
2022/12/06 11:48:17;;;;;;;11.65;8.80;;;;;;;8.10;65.45;100500.78;5109227;28;20468;-64
2022/12/06 11:50:47;;;;;;;17.30;10.43;;;;;;;8.19;65.71;100500.13;5094484;28;20047;-64
2022/12/06 11:53:19;;;;;;;;;;;;;;;8.11;65.97;100496.91;5112616;28;20062;-64
2022/12/06 11:55:50;;;;;;;12.90;10.27;;;;;;;8.29;66.41;100491.69;5109022;28;19929;-64
2022/12/06 11:58:25;;;;;;;11.75;9.07;;;;;;;8.42;65.62;100495.69;5083893;28;20496;-64
2022/12/06 12:00:59;;;;;;;10.95;8.45;;;;;;;8.43;66.70;100486.25;5091363;28;20464;-64